Time;durP1;ratioP1;P1;durP2;ratioP2;P2;SDS_P1;SDS_P2;PMS_P1;PMS_P2;Temp;Humidity;BMP_temperature;BMP_pressure;BME280_temperature;BME280_humidity;BME280_pressure;Samples;Min_cycle;Max_cycle;Signal;HPM_P1;HPM_P2
2022/03/01 00:01:50;;;;;;;12.30;8.20;;;5.20;86.90;;;;;;5029847;28;20215;-84
2022/03/01 00:04:17;;;;;;;10.63;8.50;;;5.10;88.10;;;;;;5024592;28;20207;-84
2022/03/01 00:06:45;;;;;;;13.00;9.33;;;4.90;89.20;;;;;;5023353;28;20209;-83
2022/03/01 00:09:12;;;;;;;10.47;8.70;;;5.00;89.30;;;;;;5024321;28;20643;-83
2022/03/01 00:11:41;;;;;;;11.13;8.40;;;4.80;91.00;;;;;;5025135;28;20209;-83
2022/03/01 00:14:09;;;;;;;10.07;8.43;;;4.80;91.60;;;;;;5030362;28;20205;-83
2022/03/01 00:16:36;;;;;;;14.50;9.40;;;4.90;91.10;;;;;;5025832;28;20675;-83
2022/03/01 00:19:04;;;;;;;11.50;7.83;;;5.00;90.40;;;;;;5026360;28;20220;-84
2022/03/01 00:21:31;;;;;;;9.93;7.77;;;5.00;87.70;;;;;;5024518;28;20213;-84
2022/03/01 00:24:02;;;;;;;10.40;8.20;;;5.30;84.60;;;;;;5040748;28;20788;-83
2022/03/01 00:26:29;;;;;;;9.70;7.07;;;5.70;82.90;;;;;;5022073;28;20206;-83
2022/03/01 00:28:58;;;;;;;9.10;6.90;;;6.40;75.20;;;;;;5026005;28;20218;-84
2022/03/01 00:31:25;;;;;;;8.73;7.87;;;6.70;72.50;;;;;;5021127;28;20205;-83
2022/03/01 00:33:53;;;;;;;8.70;7.80;;;6.30;75.80;;;;;;5026859;28;20676;-84
2022/03/01 00:36:20;;;;;;;9.93;7.60;;;6.00;79.60;;;;;;5021015;28;20223;-84
2022/03/01 00:38:48;;;;;;;12.03;8.00;;;6.00;79.20;;;;;;5020278;28;20305;-83
2022/03/01 00:41:15;;;;;;;8.83;7.53;;;5.70;81.70;;;;;;5023301;28;20199;-83
2022/03/01 00:43:43;;;;;;;9.07;7.40;;;5.50;83.80;;;;;;5022848;28;20209;-83
2022/03/01 00:46:12;;;;;;;9.43;7.20;;;5.30;84.70;;;;;;5019741;28;20203;-84
2022/03/01 00:48:39;;;;;;;8.83;7.53;;;5.60;81.70;;;;;;5034331;28;20226;-83
2022/03/01 00:51:07;;;;;;;8.47;7.07;;;5.40;84.00;;;;;;5027679;28;20687;-83
2022/03/01 00:53:34;;;;;;;9.80;7.83;;;5.30;83.50;;;;;;5026773;28;20604;-83
2022/03/01 00:56:04;;;;;;;9.77;7.40;;;6.00;77.00;;;;;;5026834;28;20229;-83
2022/03/01 00:58:31;;;;;;;8.90;7.77;;;6.50;71.40;;;;;;5023959;28;20606;-83
2022/03/01 01:00:59;;;;;;;9.70;8.07;;;6.80;68.80;;;;;;5044940;28;20197;-83
2022/03/01 01:03:29;;;;;;;8.00;7.10;;;6.90;67.50;;;;;;5030260;28;20681;-84
2022/03/01 01:05:57;;;;;;;10.57;8.07;;;6.90;67.10;;;;;;5025926;28;20201;-84
2022/03/01 01:08:24;;;;;;;9.60;7.30;;;6.90;67.80;;;;;;5025672;28;20245;-84
2022/03/01 01:10:52;;;;;;;10.07;7.23;;;6.80;69.10;;;;;;5021040;28;20197;-83
2022/03/01 01:13:20;;;;;;;10.33;7.63;;;6.60;69.20;;;;;;5028470;28;20202;-84
2022/03/01 01:15:47;;;;;;;10.33;7.93;;;6.70;70.70;;;;;;5032285;28;20225;-84
2022/03/01 01:18:15;;;;;;;8.97;7.03;;;6.50;72.30;;;;;;5029107;28;20247;-84
2022/03/01 01:20:44;;;;;;;10.50;8.07;;;6.10;74.80;;;;;;5029635;28;20584;-84
2022/03/01 01:23:11;;;;;;;11.33;8.33;;;5.90;77.80;;;;;;5032482;28;20207;-83
2022/03/01 01:25:39;;;;;;;11.10;8.50;;;5.50;82.30;;;;;;5048191;28;20207;-84
2022/03/01 01:28:06;;;;;;;8.43;7.20;;;5.50;82.90;;;;;;5028071;28;20587;-83
2022/03/01 01:30:35;;;;;;;8.70;7.27;;;5.80;77.90;;;;;;5029462;28;20209;-83
2022/03/01 01:33:03;;;;;;;9.83;7.87;;;5.80;78.60;;;;;;5034262;28;20207;-83
2022/03/01 01:35:33;;;;;;;9.20;8.20;;;5.60;79.90;;;;;;5047410;28;20210;-83
2022/03/01 01:38:02;;;;;;;10.37;8.40;;;5.70;80.40;;;;;;5031547;28;20222;-84
2022/03/01 01:40:31;;;;;;;13.10;8.20;;;5.90;76.60;;;;;;5034994;28;20209;-83
2022/03/01 01:43:00;;;;;;;11.70;8.27;;;6.30;72.00;;;;;;5034239;28;20206;-83
2022/03/01 01:45:30;;;;;;;8.53;7.63;;;6.60;68.40;;;;;;5047866;28;20213;-83
2022/03/01 01:47:59;;;;;;;8.93;7.07;;;6.60;67.60;;;;;;5049424;28;20262;-83
2022/03/01 01:50:28;;;;;;;9.17;7.40;;;6.60;67.30;;;;;;5036028;28;20202;-83
2022/03/01 01:52:56;;;;;;;9.87;7.30;;;6.70;66.10;;;;;;5028242;28;20226;-83
2022/03/01 01:55:27;;;;;;;9.17;7.60;;;6.60;66.00;;;;;;5036547;28;20240;-83
2022/03/01 01:57:55;;;;;;;9.53;7.27;;;6.50;66.70;;;;;;5057036;28;20877;-83
2022/03/01 02:00:23;;;;;;;9.90;7.33;;;6.50;66.50;;;;;;5057502;28;20207;-83
2022/03/01 02:02:51;;;;;;;10.80;8.43;;;6.50;66.40;;;;;;5047385;28;20207;-83
2022/03/01 02:05:18;;;;;;;11.27;7.60;;;6.40;66.80;;;;;;5028100;28;20572;-83
2022/03/01 02:07:48;;;;;;;8.77;7.33;;;6.50;66.30;;;;;;5049520;28;20584;-83
2022/03/01 02:10:35;;;;;;;8.57;7.13;;;6.50;65.90;;;;;;5033695;28;20210;-83
2022/03/01 02:13:03;;;;;;;9.53;7.97;;;6.50;65.40;;;;;;5034411;28;20674;-83
2022/03/01 02:15:32;;;;;;;9.77;7.80;;;6.50;66.30;;;;;;5040719;28;20240;-83
2022/03/01 02:18:00;;;;;;;8.80;6.67;;;6.50;65.90;;;;;;5029370;28;20229;-83
2022/03/01 02:20:30;;;;;;;9.43;6.83;;;6.50;65.90;;;;;;5031173;28;20205;-83
2022/03/01 02:22:58;;;;;;;9.13;7.00;;;6.50;65.80;;;;;;5025568;28;20209;-83
2022/03/01 02:25:25;;;;;;;10.37;7.47;;;6.40;65.60;;;;;;5023602;28;20190;-83
2022/03/01 02:27:53;;;;;;;8.40;7.53;;;6.40;65.80;;;;;;5024695;28;20217;-83
2022/03/01 02:30:21;;;;;;;9.53;7.47;;;6.40;65.50;;;;;;5032599;28;20202;-83
2022/03/01 02:32:49;;;;;;;8.93;7.13;;;6.30;66.00;;;;;;5030574;28;20209;-83
2022/03/01 02:35:16;;;;;;;10.23;7.00;;;6.30;65.80;;;;;;5034313;28;20209;-83
2022/03/01 02:37:46;;;;;;;8.77;7.40;;;6.30;66.60;;;;;;5043763;28;20222;-83
2022/03/01 02:40:14;;;;;;;8.63;6.90;;;6.30;66.90;;;;;;5029979;28;20222;-83
2022/03/01 02:42:47;;;;;;;10.77;7.53;;;6.40;66.00;;;;;;5025026;28;20551;-83
2022/03/01 02:45:18;;;;;;;9.13;7.60;;;6.40;65.90;;;;;;5023992;28;20666;-83
2022/03/01 02:47:47;;;;;;;9.03;6.27;;;6.30;66.40;;;;;;5029502;28;20221;-83
2022/03/01 02:50:15;;;;;;;9.47;7.67;;;6.40;65.50;;;;;;5018714;28;20206;-83
2022/03/01 02:52:42;;;;;;;8.90;7.40;;;6.40;65.70;;;;;;5046423;28;20208;-83
2022/03/01 02:55:11;;;;;;;8.23;6.63;;;6.30;66.50;;;;;;5028313;28;20209;-83
2022/03/01 02:57:39;;;;;;;9.50;7.33;;;6.40;66.80;;;;;;5025191;28;20230;-83
2022/03/01 03:00:08;;;;;;;9.23;7.00;;;6.30;66.20;;;;;;5041314;28;20557;-83
2022/03/01 03:02:36;;;;;;;8.23;7.13;;;6.30;65.90;;;;;;5036142;28;20210;-83
2022/03/01 03:05:04;;;;;;;8.97;7.37;;;6.20;66.00;;;;;;5029706;28;20197;-82
2022/03/01 03:07:31;;;;;;;8.97;7.30;;;6.20;66.40;;;;;;5026492;28;20210;-82
2022/03/01 03:09:59;;;;;;;12.20;7.13;;;6.20;66.40;;;;;;5036274;28;20205;-82
2022/03/01 03:12:28;;;;;;;8.20;7.07;;;6.20;66.40;;;;;;5028844;28;20211;-82
2022/03/01 03:14:55;;;;;;;10.67;7.67;;;6.20;66.50;;;;;;5019031;28;20199;-82
2022/03/01 03:17:23;;;;;;;9.17;8.03;;;6.30;66.80;;;;;;5044700;28;20214;-83
2022/03/01 03:19:51;;;;;;;9.47;7.60;;;6.10;66.30;;;;;;5030472;28;20202;-83
2022/03/01 03:22:19;;;;;;;10.87;7.87;;;6.00;66.70;;;;;;5028314;28;20195;-83
2022/03/01 03:24:46;;;;;;;8.13;7.10;;;6.10;67.80;;;;;;5029650;28;20198;-83
2022/03/01 03:27:13;;;;;;;9.53;7.37;;;6.30;67.10;;;;;;5025520;28;20286;-83
2022/03/01 03:29:42;;;;;;;9.83;7.10;;;6.30;67.00;;;;;;5030481;28;20216;-83
2022/03/01 03:32:10;;;;;;;8.30;7.20;;;6.30;66.30;;;;;;5023027;28;20212;-83
2022/03/01 03:34:37;;;;;;;8.73;7.30;;;6.30;65.80;;;;;;5031790;28;20206;-83
2022/03/01 03:37:05;;;;;;;8.73;7.57;;;6.30;66.60;;;;;;5045214;28;20218;-83
2022/03/01 03:39:32;;;;;;;10.63;7.43;;;6.50;66.10;;;;;;5026862;28;20586;-83
2022/03/01 03:42:00;;;;;;;11.20;7.33;;;6.40;65.90;;;;;;5028886;28;20209;-83
2022/03/01 03:44:27;;;;;;;7.73;6.93;;;6.30;66.40;;;;;;5032722;28;20204;-82
2022/03/01 03:46:56;;;;;;;8.67;7.40;;;6.30;66.30;;;;;;5028265;28;20201;-83
2022/03/01 03:49:24;;;;;;;9.53;7.33;;;6.30;67.70;;;;;;5041405;28;20236;-83
2022/03/01 03:51:51;;;;;;;10.07;7.80;;;6.20;67.60;;;;;;5031269;28;20198;-83
2022/03/01 03:54:19;;;;;;;8.90;7.73;;;6.20;66.90;;;;;;5022680;28;20211;-83
2022/03/01 03:56:46;;;;;;;9.70;7.40;;;6.10;66.80;;;;;;5020718;28;20684;-82
2022/03/01 03:59:14;;;;;;;8.87;7.20;;;6.10;67.30;;;;;;5040505;28;20226;-82
2022/03/01 04:01:41;;;;;;;7.70;6.83;;;6.00;67.20;;;;;;5027086;28;20213;-82
2022/03/01 04:04:10;;;;;;;11.60;8.07;;;6.10;68.40;;;;;;5030352;28;20247;-82
2022/03/01 04:06:38;;;;;;;8.93;7.57;;;6.10;67.60;;;;;;5041460;28;20202;-83
2022/03/01 04:09:06;;;;;;;10.70;7.60;;;6.20;67.30;;;;;;5025067;28;20637;-83
2022/03/01 04:11:34;;;;;;;9.07;7.20;;;6.40;67.80;;;;;;5030732;28;20202;-83
2022/03/01 04:14:02;;;;;;;9.03;7.37;;;6.50;68.10;;;;;;5030084;28;20203;-83
2022/03/01 04:16:30;;;;;;;10.00;6.87;;;6.50;66.80;;;;;;5040909;28;20220;-82
2022/03/01 04:18:57;;;;;;;9.30;7.70;;;6.50;66.50;;;;;;5031705;28;20452;-83
2022/03/01 04:21:26;;;;;;;10.63;7.83;;;6.40;66.50;;;;;;5043941;28;20800;-83
2022/03/01 04:23:53;;;;;;;10.03;7.63;;;6.40;66.50;;;;;;5024795;28;20195;-82
2022/03/01 04:26:23;;;;;;;9.97;7.87;;;6.60;67.80;;;;;;5028241;28;20560;-83
2022/03/01 04:28:50;;;;;;;10.03;7.67;;;6.50;66.30;;;;;;5027228;28;20257;-82
2022/03/01 04:31:17;;;;;;;9.57;7.93;;;6.20;67.90;;;;;;5028030;28;20203;-83
2022/03/01 04:33:45;;;;;;;9.37;7.30;;;6.30;69.40;;;;;;5027783;28;20207;-82
2022/03/01 04:36:13;;;;;;;11.07;8.73;;;6.20;68.60;;;;;;5024659;28;20206;-83
2022/03/01 04:38:42;;;;;;;10.67;8.27;;;6.20;69.00;;;;;;5021504;28;20224;-82
2022/03/01 04:41:10;;;;;;;9.93;7.57;;;5.90;69.80;;;;;;5029576;28;20196;-83
2022/03/01 04:43:38;;;;;;;9.13;7.17;;;5.90;70.50;;;;;;5030246;28;20199;-82
2022/03/01 04:46:06;;;;;;;10.17;7.37;;;6.00;69.70;;;;;;5024779;28;20210;-83
2022/03/01 04:48:33;;;;;;;10.13;7.53;;;6.10;68.20;;;;;;5025945;28;20210;-83
2022/03/01 04:51:01;;;;;;;9.40;7.73;;;6.00;68.60;;;;;;5029657;28;20572;-83
2022/03/01 04:53:28;;;;;;;9.73;7.80;;;5.80;70.40;;;;;;5028722;28;20205;-82
2022/03/01 04:55:57;;;;;;;9.20;7.50;;;5.70;71.60;;;;;;5030683;28;20211;-82
2022/03/01 04:58:24;;;;;;;10.53;7.83;;;5.60;72.20;;;;;;5020381;28;20517;-82
2022/03/01 05:00:54;;;;;;;9.27;7.47;;;5.50;74.40;;;;;;5049521;28;20202;-83
2022/03/01 05:03:23;;;;;;;10.00;7.83;;;5.30;75.40;;;;;;5029523;28;20276;-82
2022/03/01 05:05:51;;;;;;;9.23;7.10;;;5.10;77.20;;;;;;5030644;28;20222;-83
2022/03/01 05:08:18;;;;;;;10.63;8.40;;;4.90;80.20;;;;;;5044251;28;20222;-82
2022/03/01 05:10:46;;;;;;;8.53;7.63;;;5.20;78.90;;;;;;5028467;28;20205;-82
2022/03/01 05:13:15;;;;;;;9.60;7.60;;;5.20;78.40;;;;;;5026766;28;20206;-82
2022/03/01 05:15:52;;;;;;;10.03;7.80;;;5.30;75.70;;;;;;5018894;28;20206;-82
2022/03/01 05:18:21;;;;;;;10.87;8.10;;;5.30;75.30;;;;;;5028007;28;20275;-82
2022/03/01 05:20:48;;;;;;;10.03;7.27;;;5.40;75.70;;;;;;5031202;28;20210;-83
2022/03/01 05:23:16;;;;;;;11.90;8.20;;;5.40;75.20;;;;;;5033361;28;20647;-82
2022/03/01 05:25:46;;;;;;;9.73;7.90;;;5.30;75.80;;;;;;5031329;28;20185;-82
2022/03/01 05:28:15;;;;;;;8.57;7.00;;;5.40;74.50;;;;;;5032441;28;20234;-82
2022/03/01 05:30:42;;;;;;;8.90;8.00;;;5.40;75.90;;;;;;5031822;28;20648;-82
2022/03/01 05:33:10;;;;;;;11.23;8.20;;;5.50;74.40;;;;;;5043714;28;20217;-83
2022/03/01 05:35:37;;;;;;;11.50;7.90;;;5.20;75.20;;;;;;5034824;28;20207;-82
2022/03/01 05:38:07;;;;;;;10.43;8.07;;;5.20;76.30;;;;;;5029944;28;20231;-82
2022/03/01 05:40:34;;;;;;;11.20;8.33;;;5.40;75.20;;;;;;5032275;28;20209;-82
2022/03/01 05:43:02;;;;;;;11.00;8.40;;;5.20;77.00;;;;;;5030258;28;20207;-83
2022/03/01 05:45:31;;;;;;;12.93;8.40;;;5.20;76.20;;;;;;5022124;28;20206;-82
2022/03/01 05:47:58;;;;;;;11.67;8.37;;;5.40;74.60;;;;;;5023251;28;20217;-83
2022/03/01 05:50:26;;;;;;;12.17;8.70;;;5.50;74.20;;;;;;5031600;28;20215;-83
2022/03/01 05:52:54;;;;;;;11.93;8.53;;;5.70;73.80;;;;;;5023741;28;20199;-83
2022/03/01 05:55:22;;;;;;;11.60;8.60;;;5.70;72.90;;;;;;5033107;28;20217;-83
2022/03/01 05:57:49;;;;;;;11.93;8.50;;;5.80;71.30;;;;;;5026384;28;20239;-83
2022/03/01 06:00:19;;;;;;;13.90;9.47;;;5.90;72.20;;;;;;5032038;28;20195;-82
2022/03/01 06:02:49;;;;;;;11.27;8.47;;;6.10;71.10;;;;;;5034309;28;20198;-79
2022/03/01 06:05:17;;;;;;;12.60;8.37;;;5.90;70.10;;;;;;5045840;28;20210;-79
2022/03/01 06:07:45;;;;;;;12.00;9.20;;;5.90;70.40;;;;;;5040106;28;20236;-79
2022/03/01 06:10:13;;;;;;;13.80;8.93;;;6.00;70.70;;;;;;5025063;28;20207;-77
2022/03/01 06:12:41;;;;;;;11.43;8.70;;;5.90;70.20;;;;;;5025655;28;20232;-77
2022/03/01 06:15:10;;;;;;;15.30;9.53;;;5.80;69.50;;;;;;5027739;28;20205;-77
2022/03/01 06:17:39;;;;;;;12.00;9.10;;;5.70;70.10;;;;;;5045378;28;20237;-77
2022/03/01 06:20:12;;;;;;;12.97;8.77;;;5.70;70.00;;;;;;5021683;28;20213;-77
2022/03/01 06:22:41;;;;;;;11.30;8.33;;;5.80;71.20;;;;;;5026494;28;20209;-80
2022/03/01 06:25:30;;;;;;;11.43;8.70;;;6.00;70.80;;;;;;5039205;28;20206;-79
2022/03/01 06:28:05;;;;;;;12.80;8.63;;;6.60;74.70;;;;;;5023159;28;20222;-79
2022/03/01 06:30:33;;;;;;;9.93;8.40;;;7.60;71.20;;;;;;5049134;28;20199;-78
2022/03/01 06:33:08;;;;;;;11.10;8.30;;;7.60;65.00;;;;;;5021132;28;20205;-77
2022/03/01 06:35:36;;;;;;;15.53;8.97;;;6.40;66.30;;;;;;5049844;28;20225;-77
2022/03/01 06:38:04;;;;;;;11.23;8.00;;;6.20;67.10;;;;;;5026302;28;20600;-78
2022/03/01 06:40:31;;;;;;;12.87;8.97;;;6.00;67.40;;;;;;5017969;28;20201;-78
2022/03/01 06:43:14;;;;;;;13.27;9.00;;;5.80;67.20;;;;;;5029916;28;20202;-77
2022/03/01 06:45:45;;;;;;;11.67;8.23;;;5.90;67.90;;;;;;5033753;28;20202;-77
2022/03/01 06:48:20;;;;;;;10.03;7.43;;;5.90;67.80;;;;;;5043346;28;20222;-78
2022/03/01 06:51:00;;;;;;;16.33;9.13;;;5.90;68.10;;;;;;5028290;28;20205;-78
2022/03/01 06:53:27;;;;;;;12.40;9.27;;;6.00;67.40;;;;;;5029342;28;20213;-77
2022/03/01 06:56:17;;;;;;;10.60;8.50;;;5.90;67.20;;;;;;5024798;28;20203;-78
2022/03/01 06:58:56;;;;;;;13.07;8.37;;;5.90;67.00;;;;;;5023729;28;20232;-78
2022/03/01 07:01:32;;;;;;;10.97;8.00;;;5.90;67.00;;;;;;5022659;28;20184;-78
2022/03/01 07:03:59;;;;;;;12.07;9.10;;;5.90;66.80;;;;;;5017688;28;20198;-78
2022/03/01 07:06:30;;;;;;;11.90;8.90;;;5.90;66.30;;;;;;5020022;28;20204;-78
2022/03/01 07:08:58;;;;;;;12.20;8.77;;;6.00;66.60;;;;;;5020055;28;20232;-78
2022/03/01 07:11:31;;;;;;;11.77;8.20;;;6.00;66.00;;;;;;5024059;28;20191;-78
2022/03/01 07:13:58;;;;;;;10.07;7.90;;;6.10;66.60;;;;;;5020266;28;20198;-78
2022/03/01 07:16:39;;;;;;;12.77;9.10;;;6.30;66.50;;;;;;5024372;28;20204;-79
2022/03/01 07:19:07;;;;;;;12.40;8.67;;;6.40;66.50;;;;;;5021040;28;20234;-79
2022/03/01 07:21:36;;;;;;;12.00;8.73;;;6.30;65.50;;;;;;5043415;28;20197;-78
2022/03/01 07:24:04;;;;;;;11.50;8.43;;;6.30;65.80;;;;;;5034344;28;20230;-78
2022/03/01 07:26:31;;;;;;;16.07;9.63;;;6.30;64.90;;;;;;5031778;28;20250;-78
2022/03/01 07:29:03;;;;;;;12.47;8.53;;;6.30;64.80;;;;;;5026777;28;20217;-78
2022/03/01 07:31:31;;;;;;;13.50;8.73;;;6.20;64.30;;;;;;5024296;28;20240;-79
2022/03/01 07:33:59;;;;;;;12.27;8.90;;;6.20;64.50;;;;;;5032235;28;20194;-78
2022/03/01 07:36:27;;;;;;;14.00;8.93;;;6.30;64.30;;;;;;5033137;28;20206;-78
2022/03/01 07:39:08;;;;;;;13.37;8.60;;;6.20;64.00;;;;;;5032657;28;20224;-78
2022/03/01 07:41:35;;;;;;;11.63;8.83;;;6.10;64.40;;;;;;5034484;28;20193;-78
2022/03/01 07:44:03;;;;;;;12.20;8.80;;;6.20;64.40;;;;;;5030495;28;20207;-79
2022/03/01 07:46:31;;;;;;;11.93;8.10;;;6.20;63.90;;;;;;5017129;28;20202;-79
2022/03/01 07:48:58;;;;;;;12.17;8.70;;;6.20;63.70;;;;;;5028075;28;20209;-79
2022/03/01 07:51:28;;;;;;;13.67;8.17;;;6.10;63.30;;;;;;5030698;28;20201;-79
2022/03/01 07:53:56;;;;;;;13.83;8.70;;;6.10;63.60;;;;;;5042991;28;20197;-80
2022/03/01 07:56:25;;;;;;;15.73;8.60;;;6.20;63.60;;;;;;5032022;28;20210;-78
2022/03/01 07:58:53;;;;;;;13.00;8.60;;;6.10;62.80;;;;;;5032588;28;20210;-78
2022/03/01 08:01:21;;;;;;;10.57;8.40;;;6.10;62.90;;;;;;5035590;28;20206;-79
2022/03/01 08:03:49;;;;;;;10.97;7.97;;;6.10;62.80;;;;;;5027280;28;20211;-79
2022/03/01 08:06:17;;;;;;;13.70;8.53;;;6.10;62.60;;;;;;5014585;28;20680;-79
2022/03/01 08:08:45;;;;;;;12.40;8.93;;;6.30;62.90;;;;;;5026243;28;20225;-79
2022/03/01 08:11:13;;;;;;;10.97;8.23;;;6.30;62.60;;;;;;5028030;28;20205;-77
2022/03/01 08:13:42;;;;;;;11.13;8.23;;;6.30;62.90;;;;;;5013060;28;20225;-79
2022/03/01 08:16:20;;;;;;;11.00;8.40;;;6.50;62.40;;;;;;5032003;28;20648;-79
2022/03/01 08:18:48;;;;;;;14.73;7.87;;;6.50;62.50;;;;;;5028132;28;20225;-79
2022/03/01 08:21:15;;;;;;;13.63;8.10;;;6.60;61.30;;;;;;5027631;28;20221;-79
2022/03/01 08:23:42;;;;;;;11.10;7.60;;;6.60;60.90;;;;;;5031555;28;20198;-78
2022/03/01 08:26:10;;;;;;;11.10;8.10;;;6.60;60.40;;;;;;5027502;28;20578;-76
2022/03/01 08:28:40;;;;;;;11.93;8.00;;;6.50;59.80;;;;;;5031188;28;20218;-77
2022/03/01 08:31:09;;;;;;;11.57;7.83;;;6.60;59.70;;;;;;5031079;28;20213;-78
2022/03/01 08:33:36;;;;;;;12.80;7.87;;;6.70;59.70;;;;;;5017539;28;20207;-77
2022/03/01 08:36:04;;;;;;;12.50;9.37;;;6.70;59.40;;;;;;5045198;28;20205;-77
2022/03/01 08:38:31;;;;;;;11.27;6.97;;;6.90;59.50;;;;;;5030577;28;20237;-78
2022/03/01 08:40:59;;;;;;;13.07;8.57;;;6.90;59.30;;;;;;5029815;28;20216;-78
2022/03/01 08:43:27;;;;;;;10.70;7.60;;;7.00;58.80;;;;;;5025186;28;20193;-77
2022/03/01 08:45:55;;;;;;;14.60;8.13;;;7.00;58.00;;;;;;5030087;28;20210;-78
2022/03/01 08:48:25;;;;;;;10.50;8.03;;;7.00;57.40;;;;;;5030387;28;20218;-77
2022/03/01 08:50:53;;;;;;;11.37;7.73;;;7.00;57.60;;;;;;5034075;28;20198;-77
2022/03/01 08:53:20;;;;;;;10.40;8.23;;;7.10;56.90;;;;;;5028703;28;20214;-77
2022/03/01 08:55:48;;;;;;;12.07;8.23;;;7.10;56.70;;;;;;5039194;28;20203;-78
2022/03/01 08:58:19;;;;;;;10.97;8.33;;;7.20;56.70;;;;;;5017671;28;20242;-78
2022/03/01 09:00:46;;;;;;;11.80;8.03;;;7.20;56.40;;;;;;5013800;28;20696;-78
2022/03/01 09:03:14;;;;;;;11.87;8.20;;;7.20;56.20;;;;;;5025490;28;20207;-78
2022/03/01 09:05:43;;;;;;;11.20;7.60;;;7.30;56.60;;;;;;5012723;28;20642;-77
2022/03/01 09:08:12;;;;;;;12.10;7.13;;;7.40;55.60;;;;;;5022831;28;20223;-78
2022/03/01 09:10:40;;;;;;;11.80;8.60;;;7.50;56.50;;;;;;5025925;28;20309;-78
2022/03/01 09:13:07;;;;;;;11.17;8.37;;;7.60;56.00;;;;;;5015114;28;20195;-77
2022/03/01 09:15:35;;;;;;;10.50;7.70;;;7.60;54.80;;;;;;5025712;28;20209;-78
2022/03/01 09:18:05;;;;;;;10.97;7.23;;;7.70;55.30;;;;;;5025602;28;20219;-77
2022/03/01 09:20:39;;;;;;;10.77;8.13;;;7.60;53.60;;;;;;5025984;28;20210;-77
2022/03/01 09:23:10;;;;;;;11.47;8.00;;;7.50;53.00;;;;;;5024755;28;20203;-78
2022/03/01 09:25:37;;;;;;;12.23;8.07;;;7.50;52.80;;;;;;5040395;28;20675;-77
2022/03/01 09:28:05;;;;;;;10.47;6.73;;;7.60;52.60;;;;;;5042066;28;20595;-77
2022/03/01 09:30:32;;;;;;;10.73;7.40;;;7.60;52.90;;;;;;5033557;28;20200;-77
2022/03/01 09:33:00;;;;;;;12.47;8.10;;;7.70;53.20;;;;;;5017693;28;20213;-78
2022/03/01 09:35:28;;;;;;;10.27;7.83;;;7.80;52.80;;;;;;5032507;28;20673;-77
2022/03/01 09:37:56;;;;;;;10.23;7.57;;;7.90;52.60;;;;;;5049055;28;20237;-77
2022/03/01 09:40:24;;;;;;;10.63;7.90;;;7.90;52.80;;;;;;5028517;28;20226;-78
2022/03/01 09:42:53;;;;;;;9.97;7.60;;;7.90;52.00;;;;;;5026849;28;20199;-78
2022/03/01 09:45:21;;;;;;;10.80;7.37;;;7.90;52.20;;;;;;5027620;28;20676;-77
2022/03/01 09:47:49;;;;;;;9.60;6.97;;;7.90;52.00;;;;;;5028530;28;20230;-78
2022/03/01 09:50:16;;;;;;;11.40;7.60;;;7.90;52.40;;;;;;5044852;28;20203;-78
2022/03/01 09:52:44;;;;;;;10.87;7.40;;;8.00;52.80;;;;;;5024572;28;20195;-78
2022/03/01 09:55:11;;;;;;;10.17;7.57;;;8.00;52.90;;;;;;5026185;28;20206;-78
2022/03/01 09:57:40;;;;;;;11.57;7.13;;;8.10;52.90;;;;;;5031403;28;20560;-77
2022/03/01 10:00:09;;;;;;;12.20;7.37;;;8.00;51.60;;;;;;5024700;28;20227;-78
2022/03/01 10:02:40;;;;;;;10.30;7.13;;;8.00;51.60;;;;;;5028761;28;20187;-78
2022/03/01 10:05:09;;;;;;;9.83;7.07;;;8.00;51.20;;;;;;5026207;28;20210;-77
2022/03/01 10:07:38;;;;;;;10.20;7.10;;;8.10;51.50;;;;;;5026009;28;20199;-77
2022/03/01 10:10:08;;;;;;;9.53;6.90;;;8.10;51.90;;;;;;5023850;28;20202;-78
2022/03/01 10:12:36;;;;;;;9.70;7.10;;;8.10;50.90;;;;;;5031793;28;20203;-77
2022/03/01 10:15:07;;;;;;;9.33;7.33;;;8.10;50.90;;;;;;5031726;28;20677;-77
2022/03/01 10:17:36;;;;;;;10.20;6.97;;;8.30;50.90;;;;;;5029587;28;20210;-78
2022/03/01 10:20:07;;;;;;;10.20;7.70;;;8.50;51.50;;;;;;5043155;28;20219;-78
2022/03/01 10:22:34;;;;;;;10.63;7.60;;;8.60;52.00;;;;;;5029594;28;20195;-78
2022/03/01 10:25:07;;;;;;;11.40;7.30;;;8.50;50.50;;;;;;5026548;28;20213;-78
2022/03/01 10:27:35;;;;;;;11.63;7.93;;;8.60;50.40;;;;;;5033164;28;20205;-78
2022/03/01 10:30:06;;;;;;;10.80;7.30;;;8.70;50.60;;;;;;5030207;28;20203;-78
2022/03/01 10:32:34;;;;;;;12.87;7.10;;;8.50;50.20;;;;;;5013303;28;20188;-77
2022/03/01 10:35:04;;;;;;;10.50;7.47;;;8.50;50.30;;;;;;5020043;28;20218;-77
2022/03/01 10:37:33;;;;;;;11.73;6.87;;;8.60;50.60;;;;;;5032502;28;20210;-77
2022/03/01 10:40:12;;;;;;;10.83;7.17;;;8.70;51.20;;;;;;5029967;28;20578;-77
2022/03/01 10:42:40;;;;;;;10.37;7.00;;;8.70;51.00;;;;;;5032840;28;20204;-77
2022/03/01 10:45:10;;;;;;;12.27;7.53;;;8.70;50.20;;;;;;5031382;28;20191;-77
2022/03/01 10:47:38;;;;;;;11.03;7.33;;;8.80;50.20;;;;;;5033713;28;20203;-77
2022/03/01 10:50:08;;;;;;;9.77;7.37;;;9.00;49.90;;;;;;5031238;28;20198;-78
2022/03/01 10:52:37;;;;;;;10.23;7.20;;;9.10;50.20;;;;;;5028813;28;20225;-78
2022/03/01 10:55:06;;;;;;;13.27;7.87;;;9.20;50.10;;;;;;5025572;28;20192;-77
2022/03/01 10:57:33;;;;;;;9.87;7.30;;;9.20;50.80;;;;;;5024008;28;20211;-78
2022/03/01 11:00:01;;;;;;;11.60;8.33;;;9.10;49.40;;;;;;5026373;28;20222;-78
2022/03/01 11:02:30;;;;;;;9.63;7.57;;;9.20;50.40;;;;;;5047907;28;20204;-78
2022/03/01 11:04:57;;;;;;;10.37;7.63;;;9.20;49.10;;;;;;5021329;28;20206;-78
2022/03/01 11:07:29;;;;;;;8.67;6.87;;;9.20;49.80;;;;;;5024462;28;20204;-78
2022/03/01 11:09:59;;;;;;;11.30;7.77;;;9.30;49.00;;;;;;5015854;28;20214;-78
2022/03/01 11:12:27;;;;;;;10.77;7.50;;;9.30;49.60;;;;;;5018048;28;20218;-77
2022/03/01 11:15:05;;;;;;;9.00;6.80;;;9.40;49.90;;;;;;5043292;28;20211;-78
2022/03/01 11:17:45;;;;;;;10.00;7.33;;;9.40;50.40;;;;;;5025063;28;20540;-78
2022/03/01 11:20:15;;;;;;;10.37;7.87;;;9.30;49.60;;;;;;5024630;28;20215;-77
2022/03/01 11:22:47;;;;;;;9.93;7.70;;;9.30;51.50;;;;;;5026899;28;20199;-78
2022/03/01 11:25:17;;;;;;;10.47;7.33;;;9.50;52.00;;;;;;5027612;28;20209;-78
2022/03/01 11:27:46;;;;;;;11.23;7.27;;;9.70;49.80;;;;;;5016706;28;20219;-79
2022/03/01 11:30:18;;;;;;;10.30;7.90;;;9.70;50.10;;;;;;5033423;28;20203;-77
2022/03/01 11:32:59;;;;;;;11.77;7.63;;;9.70;50.40;;;;;;5015491;28;20211;-78
2022/03/01 11:35:39;;;;;;;11.27;8.03;;;9.60;51.30;;;;;;5020403;28;20195;-77
2022/03/01 11:38:54;;;;;;;;;;;;;;;;;;;;;
2022/03/01 11:42:20;;;;;;;;;;;;;;;;;;;;;
2022/03/01 11:46:06;;;;;;;;;;;;;;;;;;;;;
2022/03/01 11:48:45;;;;;;;14.10;8.43;;;9.80;52.00;;;;;;4993515;28;20223;-77
2022/03/01 11:51:15;;;;;;;12.00;8.23;;;9.70;50.20;;;;;;5022415;28;20198;-77
2022/03/01 11:53:49;;;;;;;10.87;7.40;;;9.70;50.30;;;;;;5020642;28;20210;-77
2022/03/01 11:56:18;;;;;;;11.67;8.07;;;9.70;49.40;;;;;;5040003;28;20207;-78
2022/03/01 11:58:50;;;;;;;10.57;7.67;;;9.80;49.30;;;;;;5021465;28;20227;-77
2022/03/01 12:01:23;;;;;;;10.43;7.63;;;9.90;49.80;;;;;;5019886;28;20218;-77
2022/03/01 12:04:07;;;;;;;11.17;7.57;;;9.70;49.60;;;;;;5045520;28;20202;-77
2022/03/01 12:06:39;;;;;;;11.47;7.43;;;9.70;49.50;;;;;;5038425;28;20210;-77
2022/03/01 12:09:08;;;;;;;11.30;7.57;;;9.80;50.00;;;;;;5025930;28;20222;-78
2022/03/01 12:11:37;;;;;;;8.37;6.20;;;9.90;49.40;;;;;;5025664;28;20524;-79
2022/03/01 12:14:09;;;;;;;8.13;6.47;;;10.50;55.00;;;;;;5039392;28;20580;-81
2022/03/01 12:16:38;;;;;;;10.53;7.77;;;11.90;56.30;;;;;;5029633;28;20200;-79
2022/03/01 12:19:15;;;;;;;10.90;7.37;;;11.80;51.80;;;;;;5027263;28;20222;-79
2022/03/01 12:21:49;;;;;;;8.80;7.27;;;10.70;47.20;;;;;;5023367;28;20695;-78
2022/03/01 12:24:18;;;;;;;10.73;7.97;;;10.30;48.10;;;;;;5030245;28;20195;-78
2022/03/01 12:26:49;;;;;;;11.53;8.17;;;10.40;48.10;;;;;;5029520;28;20210;-78
2022/03/01 12:29:28;;;;;;;12.23;8.67;;;10.20;48.90;;;;;;5045498;28;20223;-78
2022/03/01 12:32:01;;;;;;;13.60;7.97;;;10.30;48.40;;;;;;5044392;28;20195;-79
2022/03/01 12:34:31;;;;;;;10.70;8.07;;;10.20;49.30;;;;;;5037022;28;20666;-79
2022/03/01 12:37:00;;;;;;;12.03;8.07;;;10.20;49.20;;;;;;5021827;28;20191;-79
2022/03/01 12:39:30;;;;;;;10.30;7.63;;;10.20;49.50;;;;;;5030329;28;20233;-78
2022/03/01 12:41:58;;;;;;;10.57;8.10;;;10.00;48.90;;;;;;5042753;28;20214;-78
2022/03/01 12:44:29;;;;;;;11.27;8.03;;;10.00;49.30;;;;;;5025254;28;20210;-78
2022/03/01 12:46:58;;;;;;;11.27;8.63;;;10.00;48.60;;;;;;5021514;28;20199;-78
2022/03/01 12:49:26;;;;;;;13.50;8.53;;;10.10;49.00;;;;;;5030497;28;20704;-78
2022/03/01 12:51:59;;;;;;;12.00;8.50;;;10.10;48.90;;;;;;5025350;28;20210;-79
2022/03/01 12:54:28;;;;;;;12.33;8.70;;;10.20;48.60;;;;;;5018136;28;20188;-79
2022/03/01 12:56:57;;;;;;;9.90;8.00;;;9.90;51.80;;;;;;5029366;28;20222;-79
2022/03/01 12:59:27;;;;;;;11.97;8.47;;;10.10;52.70;;;;;;5032731;28;20218;-79
2022/03/01 13:01:55;;;;;;;13.57;8.97;;;10.10;53.50;;;;;;5033869;28;20723;-79
2022/03/01 13:04:27;;;;;;;14.73;9.33;;;10.10;50.50;;;;;;5026506;28;20229;-79
2022/03/01 13:06:54;;;;;;;11.30;8.50;;;10.10;52.30;;;;;;5030940;28;20226;-79